UAE1837 OEJN-OMDB
Flight info
| Callsign | UAE1837 |
|---|---|
| Flight time | N/A |
| Altitude | 35000 |
| Route | EGREP2W/34C EGREP T532 KODIS Y214 RAPMA DCT KATIT DCT PEKEM M628 RIGIL G783 ASPED DCT KIPOK DCT IMPED |
| Aircraft | A388/J-SADE2E3FGHIJ3J4J5M1RWXY/LB1D1 |
Departure
| Time | 2026-04-29 19:22 |
|---|---|
| Airport | King Abdulaziz International Airport (OEJN) |
Arrival
| Time | N/A |
|---|---|
| Airport | Dubai International Airport (OMDB) |
| Time | Latitude | Longitude | Altitude | Speed | Heading |
|---|---|---|---|---|---|
| 2026-04-29 18:46 | 21.67566 | 39.15162 | 35 ft | 0 kts | 289° |
| 2026-04-29 19:08 | 21.67563 | 39.15170 | 35 ft | 4 kts | 285° |
| 2026-04-29 19:08 | 21.67559 | 39.15190 | 34 ft | 1 kts | 285° |
| 2026-04-29 19:09 | 21.67576 | 39.15188 | 35 ft | 4 kts | 5° |
| 2026-04-29 19:09 | 21.67601 | 39.15198 | 35 ft | 4 kts | 23° |
| 2026-04-29 19:09 | 21.67626 | 39.15209 | 34 ft | 4 kts | 20° |
| 2026-04-29 19:09 | 21.67646 | 39.15211 | 34 ft | 3 kts | 341° |
| 2026-04-29 19:10 | 21.67663 | 39.15204 | 34 ft | 0 kts | 158° |
| 2026-04-29 19:11 | 21.67662 | 39.15204 | 34 ft | 0 kts | 158° |
| 2026-04-29 19:11 | 21.67653 | 39.15208 | 34 ft | 3 kts | 158° |
| 2026-04-29 19:11 | 21.67626 | 39.15220 | 34 ft | 6 kts | 158° |
| 2026-04-29 19:11 | 21.67621 | 39.15222 | 33 ft | 0 kts | 158° |
| 2026-04-29 19:17 | 21.67595 | 39.15233 | 35 ft | 22 kts | 158° |
| 2026-04-29 19:17 | 21.67563 | 39.15379 | 35 ft | 30 kts | 50° |
| 2026-04-29 19:18 | 21.67641 | 39.15596 | 34 ft | 32 kts | 72° |
| 2026-04-29 19:18 | 21.67639 | 39.15658 | 35 ft | 23 kts | 124° |
| 2026-04-29 19:18 | 21.67520 | 39.15833 | 36 ft | 0 kts | 194° |
| 2026-04-29 19:18 | 21.67432 | 39.15789 | 35 ft | 35 kts | 185° |
| 2026-04-29 19:19 | 21.67250 | 39.15840 | 36 ft | 22 kts | 159° |
| 2026-04-29 19:19 | 21.67105 | 39.15888 | 36 ft | 22 kts | 160° |
| 2026-04-29 19:19 | 21.67012 | 39.15925 | 37 ft | 21 kts | 159° |
| 2026-04-29 19:19 | 21.66869 | 39.15982 | 38 ft | 22 kts | 161° |
| 2026-04-29 19:20 | 21.66706 | 39.16044 | 38 ft | 35 kts | 160° |
| 2026-04-29 19:20 | 21.66399 | 39.16166 | 39 ft | 40 kts | 159° |
| 2026-04-29 19:20 | 21.66303 | 39.16206 | 40 ft | 5 kts | 160° |
| 2026-04-29 19:20 | 21.66178 | 39.16255 | 40 ft | 31 kts | 162° |
| 2026-04-29 19:21 | 21.66119 | 39.16378 | 39 ft | 27 kts | 46° |
| 2026-04-29 19:21 | 21.66252 | 39.16433 | 38 ft | 21 kts | 328° |
| 2026-04-29 19:21 | 21.66397 | 39.16378 | 39 ft | 36 kts | 340° |
| 2026-04-29 19:21 | 21.66882 | 39.16191 | 39 ft | 108 kts | 340° |
| 2026-04-29 19:22 | 21.67769 | 39.15840 | 35 ft | 158 kts | 340° |
| 2026-04-29 19:22 | 21.68900 | 39.15397 | 29 ft | 184 kts | 339° |
| 2026-04-29 19:22 | 21.70078 | 39.14923 | 472 ft | 176 kts | 339° |
| 2026-04-29 19:22 | 21.71241 | 39.14509 | 959 ft | 176 kts | 346° |
| 2026-04-29 19:23 | 21.72441 | 39.14215 | 1381 ft | 181 kts | 348° |
| 2026-04-29 19:23 | 21.73721 | 39.13976 | 1655 ft | 193 kts | 351° |
| 2026-04-29 19:23 | 21.75098 | 39.13812 | 1931 ft | 203 kts | 354° |
| 2026-04-29 19:23 | 21.76578 | 39.13721 | 2246 ft | 227 kts | 357° |
| 2026-04-29 19:24 | 21.78234 | 39.13619 | 2729 ft | 245 kts | 352° |
| 2026-04-29 19:24 | 21.79953 | 39.13311 | 3363 ft | 256 kts | 346° |
| 2026-04-29 19:24 | 21.81677 | 39.12734 | 4015 ft | 263 kts | 338° |
| 2026-04-29 19:24 | 21.83438 | 39.12040 | 4565 ft | 274 kts | 339° |
| 2026-04-29 19:25 | 21.85239 | 39.11368 | 5165 ft | 281 kts | 340° |
| 2026-04-29 19:25 | 21.87159 | 39.10734 | 5566 ft | 295 kts | 341° |
| 2026-04-29 19:25 | 21.89187 | 39.10051 | 5794 ft | 313 kts | 341° |
| 2026-04-29 19:25 | 21.91248 | 39.09427 | 6685 ft | 306 kts | 343° |
| 2026-04-29 19:26 | 21.93318 | 39.08872 | 7250 ft | 311 kts | 344° |
| 2026-04-29 19:26 | 21.95451 | 39.08367 | 7859 ft | 315 kts | 346° |
| 2026-04-29 19:26 | 21.97538 | 39.07675 | 8450 ft | 313 kts | 337° |
| 2026-04-29 19:26 | 21.99620 | 39.06899 | 9025 ft | 320 kts | 345° |
| 2026-04-29 19:27 | 22.01841 | 39.06714 | 9578 ft | 329 kts | 360° |
| 2026-04-29 19:27 | 22.04137 | 39.07088 | 10059 ft | 339 kts | 13° |
| 2026-04-29 19:27 | 22.06358 | 39.08042 | 10617 ft | 345 kts | 26° |
| 2026-04-29 19:27 | 22.08327 | 39.09469 | 11207 ft | 337 kts | 38° |
| 2026-04-29 19:28 | 22.09997 | 39.11240 | 11649 ft | 341 kts | 48° |
| 2026-04-29 19:28 | 22.11421 | 39.13312 | 12159 ft | 346 kts | 57° |
| 2026-04-29 19:28 | 22.12664 | 39.15548 | 12789 ft | 347 kts | 58° |
| 2026-04-29 19:28 | 22.13903 | 39.17786 | 13415 ft | 348 kts | 58° |
| 2026-04-29 19:29 | 22.15154 | 39.20031 | 14003 ft | 348 kts | 58° |
| 2026-04-29 19:29 | 22.16398 | 39.22246 | 14560 ft | 349 kts | 57° |
| 2026-04-29 19:29 | 22.17668 | 39.24475 | 15136 ft | 349 kts | 56° |
| 2026-04-29 19:29 | 22.18954 | 39.26701 | 15714 ft | 348 kts | 55° |
| 2026-04-29 19:30 | 22.20245 | 39.28910 | 16293 ft | 348 kts | 54° |
| 2026-04-29 19:30 | 22.21547 | 39.31113 | 16891 ft | 347 kts | 54° |
| 2026-04-29 19:30 | 22.22837 | 39.33272 | 17473 ft | 346 kts | 53° |
| 2026-04-29 19:30 | 22.24151 | 39.35445 | 18059 ft | 344 kts | 52° |
| 2026-04-29 19:31 | 22.25471 | 39.37602 | 18599 ft | 343 kts | 52° |
| 2026-04-29 19:31 | 22.26801 | 39.39746 | 19115 ft | 342 kts | 52° |
| 2026-04-29 19:31 | 22.28141 | 39.41872 | 19613 ft | 341 kts | 52° |
| 2026-04-29 19:31 | 22.29488 | 39.43974 | 20144 ft | 340 kts | 51° |
| 2026-04-29 19:32 | 22.30847 | 39.46058 | 20640 ft | 339 kts | 51° |
| 2026-04-29 19:32 | 22.32205 | 39.48107 | 21153 ft | 338 kts | 51° |
| 2026-04-29 19:32 | 22.33586 | 39.50152 | 21666 ft | 336 kts | 50° |
| 2026-04-29 19:32 | 22.34978 | 39.52179 | 22160 ft | 334 kts | 50° |
| 2026-04-29 19:33 | 22.36362 | 39.54159 | 22657 ft | 332 kts | 49° |
| 2026-04-29 19:33 | 22.37775 | 39.56138 | 23130 ft | 330 kts | 49° |
| 2026-04-29 19:33 | 22.39208 | 39.58087 | 23605 ft | 328 kts | 48° |
| 2026-04-29 19:33 | 22.40634 | 39.59969 | 23977 ft | 326 kts | 46° |
| 2026-04-29 19:34 | 22.42102 | 39.61846 | 24345 ft | 325 kts | 46° |
| 2026-04-29 19:34 | 22.43586 | 39.63686 | 24693 ft | 323 kts | 44° |
| 2026-04-29 19:34 | 22.45115 | 39.65444 | 24857 ft | 320 kts | 52° |
| 2026-04-29 19:34 | 22.46713 | 39.67131 | 24965 ft | 323 kts | 37° |
| 2026-04-29 19:35 | 22.48404 | 39.68677 | 25474 ft | 310 kts | 32° |
| 2026-04-29 19:35 | 22.50119 | 39.70051 | 25826 ft | 304 kts | 28° |
| 2026-04-29 19:35 | 22.51895 | 39.71288 | 25913 ft | 308 kts | 24° |
| 2026-04-29 19:35 | 22.53790 | 39.72414 | 25986 ft | 312 kts | 19° |
| 2026-04-29 19:36 | 22.55768 | 39.73398 | 26210 ft | 311 kts | 15° |
| 2026-04-29 19:36 | 22.57779 | 39.74209 | 26418 ft | 308 kts | 7° |
| 2026-04-29 19:36 | 22.59860 | 39.74793 | 26387 ft | 310 kts | 353° |
| 2026-04-29 19:36 | 22.62031 | 39.75002 | 26062 ft | 317 kts | 338° |
| 2026-04-29 19:37 | 22.64224 | 39.74717 | 25754 ft | 318 kts | 327° |
| 2026-04-29 19:37 | 22.65620 | 39.74251 | 25742 ft | 313 kts | 319° |
| 2026-04-29 19:37 | 22.68073 | 39.72770 | 25921 ft | 297 kts | 302° |
| 2026-04-29 19:37 | 22.69525 | 39.71244 | 25962 ft | 288 kts | 289° |
| 2026-04-29 19:38 | 22.70634 | 39.69436 | 25851 ft | 291 kts | 297° |
| 2026-04-29 19:38 | 22.71901 | 39.67649 | 25692 ft | 313 kts | 307° |
| 2026-04-29 19:38 | 22.73566 | 39.65991 | 25548 ft | 335 kts | 317° |
| 2026-04-29 19:38 | 22.75571 | 39.64563 | 25431 ft | 356 kts | 326° |
| 2026-04-29 19:39 | 22.77891 | 39.63411 | 25348 ft | 376 kts | 334° |
| 2026-04-29 19:39 | 22.80442 | 39.62596 | 25271 ft | 396 kts | 342° |
| 2026-04-29 19:39 | 22.83241 | 39.62136 | 25192 ft | 415 kts | 350° |
| 2026-04-29 19:39 | 22.86197 | 39.62072 | 25143 ft | 435 kts | 357° |
| 2026-04-29 19:40 | 22.89268 | 39.62424 | 25081 ft | 453 kts | 5° |
| 2026-04-29 19:40 | 22.92420 | 39.63209 | 25025 ft | 472 kts | 12° |
| 2026-04-29 19:40 | 22.95547 | 39.64464 | 25160 ft | 485 kts | 20° |
| 2026-04-29 19:40 | 22.98533 | 39.66142 | 25361 ft | 495 kts | 27° |
| 2026-04-29 19:41 | 23.01414 | 39.68264 | 25590 ft | 503 kts | 34° |
| 2026-04-29 19:41 | 23.04088 | 39.70781 | 25804 ft | 511 kts | 41° |
| 2026-04-29 19:41 | 23.06509 | 39.73657 | 26046 ft | 519 kts | 49° |
| 2026-04-29 19:41 | 23.08639 | 39.76855 | 26304 ft | 526 kts | 56° |
| 2026-04-29 19:42 | 23.10431 | 39.80300 | 26531 ft | 533 kts | 63° |
| 2026-04-29 19:42 | 23.11442 | 39.82755 | 26696 ft | 536 kts | 68° |
| 2026-04-29 19:42 | 23.13093 | 39.87898 | 27120 ft | 540 kts | 66° |
| 2026-04-29 19:42 | 23.14777 | 39.91526 | 27523 ft | 538 kts | 59° |
| 2026-04-29 19:43 | 23.16629 | 39.95023 | 27944 ft | 539 kts | 59° |
| 2026-04-29 19:43 | 23.18022 | 39.98245 | 28600 ft | 534 kts | 69° |